Time;durP1;ratioP1;P1;durP2;ratioP2;P2;SDS_P1;SDS_P2;PMS_P1;PMS_P2;Temp;Humidity;BMP_temperature;BMP_pressure;BME280_temperature;BME280_humidity;BME280_pressure;Samples;Min_cycle;Max_cycle;Signal;HPM_P1;HPM_P2
2023/05/17 00:01:24;;;;;;;19.08;7.25;;;;;;;;;;5083132;28;20079;-70
2023/05/17 00:03:53;;;;;;;19.10;6.82;;;;;;;;;;5079054;28;20554;-71
2023/05/17 00:06:19;;;;;;;17.25;6.53;;;;;;;;;;5080672;28;20527;-70
2023/05/17 00:08:45;;;;;;;22.25;6.55;;;;;;;;;;5081474;28;20047;-71
2023/05/17 00:11:12;;;;;;;15.30;7.70;;;;;;;;;;5088933;28;20484;-73
2023/05/17 00:13:39;;;;;;;22.45;7.35;;;;;;;;;;5077365;28;20038;-72
2023/05/17 00:16:06;;;;;;;15.93;6.55;;;;;;;;;;5087187;28;20036;-72
2023/05/17 00:18:32;;;;;;;15.68;6.22;;;;;;;;;;5081278;28;20110;-72
2023/05/17 00:20:58;;;;;;;18.30;6.97;;;;;;;;;;5076989;28;20047;-73
2023/05/17 00:23:24;;;;;;;20.38;6.07;;;;;;;;;;5080506;28;20104;-72
2023/05/17 00:25:51;;;;;;;17.30;6.20;;;;;;;;;;5085349;28;20020;-72
2023/05/17 00:28:17;;;;;;;25.77;6.80;;;;;;;;;;5083563;28;20377;-70
2023/05/17 00:30:43;;;;;;;14.68;5.57;;;;;;;;;;5084893;28;20045;-70
2023/05/17 00:33:09;;;;;;;14.20;5.40;;;;;;;;;;5079666;28;20032;-70
2023/05/17 00:35:35;;;;;;;18.27;6.50;;;;;;;;;;5082232;28;20063;-70
2023/05/17 00:38:02;;;;;;;20.17;5.95;;;;;;;;;;5080024;28;20032;-71
2023/05/17 00:40:28;;;;;;;14.63;6.70;;;;;;;;;;5073065;28;20099;-71
2023/05/17 00:42:54;;;;;;;18.20;6.22;;;;;;;;;;5079323;28;20068;-70
2023/05/17 00:45:20;;;;;;;17.60;6.90;;;;;;;;;;5081624;28;20027;-71
2023/05/17 00:47:46;;;;;;;18.25;5.88;;;;;;;;;;5063121;28;20127;-70
2023/05/17 00:50:13;;;;;;;14.80;5.32;;;;;;;;;;5073793;28;20501;-70
2023/05/17 00:52:39;;;;;;;15.02;6.00;;;;;;;;;;5079835;28;20036;-70
2023/05/17 00:55:05;;;;;;;18.52;6.00;;;;;;;;;;5073216;28;20073;-70
2023/05/17 00:57:32;;;;;;;23.60;7.00;;;;;;;;;;5082815;28;20023;-71
2023/05/17 00:59:58;;;;;;;19.55;6.75;;;;;;;;;;5064794;28;20435;-71
2023/05/17 01:02:24;;;;;;;20.00;6.90;;;;;;;;;;5073304;28;20061;-71
2023/05/17 01:04:51;;;;;;;16.65;6.10;;;;;;;;;;5082893;28;20100;-71
2023/05/17 01:07:17;;;;;;;20.38;6.13;;;;;;;;;;5070657;28;20028;-71
2023/05/17 01:09:43;;;;;;;13.88;5.80;;;;;;;;;;5065570;28;20059;-71
2023/05/17 01:12:13;;;;;;;20.20;6.20;;;;;;;;;;5066729;28;20111;-70
2023/05/17 01:14:51;;;;;;;15.68;5.85;;;;;;;;;;5074017;28;20399;-72
2023/05/17 01:17:22;;;;;;;16.13;5.93;;;;;;;;;;5077937;28;20111;-72
2023/05/17 01:20:05;;;;;;;17.55;6.03;;;;;;;;;;5075905;28;20055;-72
2023/05/17 01:22:49;;;;;;;15.13;5.72;;;;;;;;;;5076900;28;20392;-71
2023/05/17 01:25:23;;;;;;;16.50;6.50;;;;;;;;;;5072747;28;20054;-73
2023/05/17 01:27:50;;;;;;;15.52;6.55;;;;;;;;;;5077406;28;20086;-72
2023/05/17 01:30:19;;;;;;;18.67;6.47;;;;;;;;;;5073199;28;20552;-73
2023/05/17 01:32:46;;;;;;;19.95;6.30;;;;;;;;;;5079883;28;20043;-72
2023/05/17 01:35:12;;;;;;;17.85;5.97;;;;;;;;;;5080480;28;20024;-72
2023/05/17 01:37:39;;;;;;;16.83;6.15;;;;;;;;;;5077552;28;20028;-72
2023/05/17 01:40:07;;;;;;;15.18;5.85;;;;;;;;;;5075273;28;20046;-73
2023/05/17 01:42:34;;;;;;;23.50;6.38;;;;;;;;;;5077483;28;20036;-73
2023/05/17 01:45:19;;;;;;;13.65;6.00;;;;;;;;;;5082072;28;20546;-72
2023/05/17 01:47:58;;;;;;;14.52;6.35;;;;;;;;;;5074628;28;20165;-73
2023/05/17 01:50:26;;;;;;;21.10;6.15;;;;;;;;;;5083690;28;20087;-73
2023/05/17 01:52:53;;;;;;;20.42;5.95;;;;;;;;;;5079503;28;20175;-72
2023/05/17 01:55:30;;;;;;;19.52;5.97;;;;;;;;;;5083213;28;20475;-73
2023/05/17 01:57:56;;;;;;;17.33;5.75;;;;;;;;;;5055574;28;20052;-72
2023/05/17 02:00:24;;;;;;;21.58;5.80;;;;;;;;;;5083309;28;20154;-73
2023/05/17 02:02:51;;;;;;;14.15;5.88;;;;;;;;;;5083286;28;20035;-70
2023/05/17 02:05:17;;;;;;;26.55;6.53;;;;;;;;;;5083010;28;20024;-72
2023/05/17 02:07:43;;;;;;;17.77;5.97;;;;;;;;;;5075317;28;20098;-72
2023/05/17 02:10:09;;;;;;;18.83;6.28;;;;;;;;;;5069463;28;20631;-72
2023/05/17 02:12:35;;;;;;;15.90;6.18;;;;;;;;;;5075783;28;20028;-71
2023/05/17 02:15:02;;;;;;;16.73;6.55;;;;;;;;;;5060701;28;20471;-71
2023/05/17 02:17:28;;;;;;;14.60;6.10;;;;;;;;;;5077572;28;20048;-72
2023/05/17 02:19:54;;;;;;;22.23;8.07;;;;;;;;;;5079248;28;20100;-72
2023/05/17 02:22:20;;;;;;;17.33;7.10;;;;;;;;;;5082208;28;20044;-72
2023/05/17 02:24:47;;;;;;;17.55;6.85;;;;;;;;;;5061929;28;20493;-72
2023/05/17 02:27:13;;;;;;;13.95;5.75;;;;;;;;;;5072669;28;20021;-71
2023/05/17 02:29:40;;;;;;;15.75;6.50;;;;;;;;;;5089995;28;20019;-71
2023/05/17 02:32:06;;;;;;;14.43;6.07;;;;;;;;;;5072151;28;20124;-71
2023/05/17 02:34:32;;;;;;;22.20;6.18;;;;;;;;;;5073942;28;20582;-69
2023/05/17 02:36:58;;;;;;;14.45;6.10;;;;;;;;;;5078267;28;20183;-70
2023/05/17 02:39:25;;;;;;;17.27;6.00;;;;;;;;;;5080835;28;20444;-71
2023/05/17 02:41:51;;;;;;;12.40;6.05;;;;;;;;;;5072784;28;20464;-70
2023/05/17 02:44:17;;;;;;;16.33;5.80;;;;;;;;;;5076068;28;20052;-71
2023/05/17 02:46:43;;;;;;;17.23;6.10;;;;;;;;;;5083435;28;20061;-69
2023/05/17 02:49:09;;;;;;;16.55;6.93;;;;;;;;;;5086363;28;20491;-71
2023/05/17 02:51:36;;;;;;;16.70;7.15;;;;;;;;;;5083060;28;20035;-71
2023/05/17 02:54:02;;;;;;;19.20;7.03;;;;;;;;;;5081829;28;20508;-70
2023/05/17 02:56:28;;;;;;;17.80;7.15;;;;;;;;;;5084188;28;20048;-70
2023/05/17 02:58:56;;;;;;;21.20;6.80;;;;;;;;;;5084076;28;20032;-69
2023/05/17 03:01:22;;;;;;;16.92;6.95;;;;;;;;;;5085524;28;20012;-70
2023/05/17 03:03:49;;;;;;;17.05;6.65;;;;;;;;;;5087574;28;20471;-69
2023/05/17 03:06:15;;;;;;;24.67;6.60;;;;;;;;;;5090061;28;20017;-70
2023/05/17 03:08:41;;;;;;;19.52;6.15;;;;;;;;;;5088062;28;20489;-72
2023/05/17 03:11:08;;;;;;;24.75;6.47;;;;;;;;;;5073854;28;20100;-72
2023/05/17 03:13:34;;;;;;;18.55;6.28;;;;;;;;;;5078541;28;20116;-69
2023/05/17 03:16:00;;;;;;;19.55;6.53;;;;;;;;;;5079668;28;20056;-70
2023/05/17 03:18:26;;;;;;;23.85;6.63;;;;;;;;;;5087520;28;20089;-69
2023/05/17 03:20:52;;;;;;;21.10;6.40;;;;;;;;;;5083296;28;20591;-70
2023/05/17 03:23:18;;;;;;;15.10;6.65;;;;;;;;;;5077970;28;20036;-69
2023/05/17 03:25:45;;;;;;;14.65;6.05;;;;;;;;;;5078476;28;20116;-71
2023/05/17 03:28:11;;;;;;;18.77;5.78;;;;;;;;;;5082674;28;20059;-70
2023/05/17 03:30:37;;;;;;;15.88;6.47;;;;;;;;;;5076245;28;20036;-70
2023/05/17 03:33:03;;;;;;;16.05;6.22;;;;;;;;;;5074468;28;20489;-69
2023/05/17 03:35:29;;;;;;;18.13;6.68;;;;;;;;;;5085755;28;20082;-69
2023/05/17 03:37:56;;;;;;;19.67;7.00;;;;;;;;;;5082586;28;20084;-72
2023/05/17 03:40:22;;;;;;;15.35;6.38;;;;;;;;;;5084597;28;20520;-71
2023/05/17 03:42:48;;;;;;;16.42;6.05;;;;;;;;;;5076559;28;20064;-70
2023/05/17 03:45:15;;;;;;;17.10;5.88;;;;;;;;;;5062900;28;20051;-69
2023/05/17 03:47:41;;;;;;;18.20;6.25;;;;;;;;;;5075277;28;20033;-70
2023/05/17 03:50:08;;;;;;;19.13;6.60;;;;;;;;;;5082434;28;20028;-70
2023/05/17 03:52:35;;;;;;;18.23;6.70;;;;;;;;;;5085250;28;20048;-72
2023/05/17 03:55:01;;;;;;;17.38;6.55;;;;;;;;;;5083264;28;20067;-71
2023/05/17 03:57:28;;;;;;;18.30;5.57;;;;;;;;;;5070964;28;20024;-72
2023/05/17 03:59:54;;;;;;;15.88;5.57;;;;;;;;;;5079686;28;20435;-70
2023/05/17 04:02:20;;;;;;;21.20;6.30;;;;;;;;;;5077984;28;20139;-72
2023/05/17 04:04:50;;;;;;;15.35;6.18;;;;;;;;;;5078478;28;20055;-72
2023/05/17 04:07:16;;;;;;;20.00;6.22;;;;;;;;;;5078135;28;20020;-72
2023/05/17 04:09:43;;;;;;;19.33;5.85;;;;;;;;;;5064505;28;20029;-71
2023/05/17 04:12:09;;;;;;;17.45;6.15;;;;;;;;;;5079056;28;20112;-71
2023/05/17 04:14:36;;;;;;;21.70;6.32;;;;;;;;;;5070812;28;20047;-71
2023/05/17 04:17:02;;;;;;;11.90;5.18;;;;;;;;;;5066169;28;20208;-71
2023/05/17 04:19:28;;;;;;;17.38;5.85;;;;;;;;;;5071482;28;20551;-70
2023/05/17 04:21:54;;;;;;;15.18;5.63;;;;;;;;;;5067530;28;20186;-71
2023/05/17 04:24:21;;;;;;;18.30;6.00;;;;;;;;;;5068785;28;20096;-72
2023/05/17 04:26:47;;;;;;;20.17;6.38;;;;;;;;;;5070826;28;20035;-73
2023/05/17 04:29:13;;;;;;;19.35;5.90;;;;;;;;;;5070899;28;20686;-71
2023/05/17 04:31:39;;;;;;;17.25;5.82;;;;;;;;;;5065100;28;20082;-73
2023/05/17 04:34:06;;;;;;;20.17;6.35;;;;;;;;;;5052683;28;20119;-71
2023/05/17 04:36:33;;;;;;;21.10;6.57;;;;;;;;;;5066041;28;20020;-72
2023/05/17 04:38:59;;;;;;;19.88;6.63;;;;;;;;;;5068383;28;20027;-73
2023/05/17 04:41:26;;;;;;;21.75;6.78;;;;;;;;;;5066501;28;20024;-72
2023/05/17 04:43:52;;;;;;;17.58;6.40;;;;;;;;;;5067252;28;20091;-72
2023/05/17 04:46:18;;;;;;;22.85;7.15;;;;;;;;;;5078237;28;20034;-73
2023/05/17 04:48:44;;;;;;;20.23;6.85;;;;;;;;;;5070329;28;20117;-72
2023/05/17 04:51:10;;;;;;;26.40;7.00;;;;;;;;;;5067519;28;20118;-72
2023/05/17 04:53:37;;;;;;;21.42;5.95;;;;;;;;;;5069629;28;20034;-72
2023/05/17 04:56:03;;;;;;;26.33;6.57;;;;;;;;;;5063448;28;20527;-72
2023/05/17 04:58:30;;;;;;;21.10;6.65;;;;;;;;;;5076921;28;20395;-72
2023/05/17 05:00:56;;;;;;;38.80;7.03;;;;;;;;;;5080447;28;20052;-73
2023/05/17 05:03:23;;;;;;;19.77;5.65;;;;;;;;;;5072078;28;20098;-72
2023/05/17 05:05:49;;;;;;;22.17;5.97;;;;;;;;;;5063982;28;20027;-71
2023/05/17 05:08:16;;;;;;;18.52;6.30;;;;;;;;;;5070595;28;20318;-72
2023/05/17 05:10:42;;;;;;;18.92;7.30;;;;;;;;;;5052483;28;20027;-71
2023/05/17 05:13:08;;;;;;;22.70;7.07;;;;;;;;;;5068336;28;20566;-70
2023/05/17 05:15:34;;;;;;;22.30;6.93;;;;;;;;;;5068553;28;20111;-72
2023/05/17 05:18:01;;;;;;;27.65;7.18;;;;;;;;;;5067487;28;20028;-72
2023/05/17 05:20:27;;;;;;;19.10;5.80;;;;;;;;;;5070761;28;20511;-72
2023/05/17 05:22:53;;;;;;;21.80;5.97;;;;;;;;;;5071720;28;20051;-72
2023/05/17 05:25:19;;;;;;;24.70;6.65;;;;;;;;;;5062964;28;20024;-73
2023/05/17 05:27:45;;;;;;;23.48;6.20;;;;;;;;;;5067138;28;20032;-72
2023/05/17 05:30:20;;;;;;;20.58;6.30;;;;;;;;;;5067263;28;20033;-72
2023/05/17 05:32:47;;;;;;;21.50;6.93;;;;;;;;;;5068771;28;20032;-73
2023/05/17 05:35:13;;;;;;;19.30;6.32;;;;;;;;;;5056589;28;20081;-72
2023/05/17 05:37:39;;;;;;;23.70;6.32;;;;;;;;;;5071016;28;20116;-72
2023/05/17 05:40:06;;;;;;;20.20;5.40;;;;;;;;;;5070885;28;20107;-72
2023/05/17 05:42:32;;;;;;;23.05;5.40;;;;;;;;;;5059768;28;20081;-72
2023/05/17 05:44:58;;;;;;;23.00;6.50;;;;;;;;;;5072741;28;20024;-72
2023/05/17 05:47:24;;;;;;;15.48;5.43;;;;;;;;;;5075105;28;20032;-75
2023/05/17 05:49:50;;;;;;;21.88;6.60;;;;;;;;;;5076137;28;20148;-74
2023/05/17 05:52:16;;;;;;;24.27;5.95;;;;;;;;;;5073019;28;20027;-76
2023/05/17 05:54:44;;;;;;;21.58;5.20;;;;;;;;;;5078375;28;20107;-74
2023/05/17 05:57:10;;;;;;;16.92;5.60;;;;;;;;;;5071404;28;20028;-73
2023/05/17 05:59:36;;;;;;;22.08;5.70;;;;;;;;;;5075340;28;20036;-73
2023/05/17 06:02:03;;;;;;;20.55;5.75;;;;;;;;;;5080553;28;20043;-72
2023/05/17 06:04:29;;;;;;;21.45;5.75;;;;;;;;;;5075564;28;20039;-72
2023/05/17 06:06:55;;;;;;;14.27;5.10;;;;;;;;;;5078797;28;20538;-73
2023/05/17 06:09:21;;;;;;;16.55;5.22;;;;;;;;;;5074112;28;20032;-73
2023/05/17 06:11:47;;;;;;;19.05;5.90;;;;;;;;;;5077496;28;20095;-70
2023/05/17 06:14:13;;;;;;;22.30;5.90;;;;;;;;;;5072589;28;20202;-71
2023/05/17 06:16:40;;;;;;;19.77;5.80;;;;;;;;;;5065971;28;20497;-71
2023/05/17 06:19:06;;;;;;;13.63;4.93;;;;;;;;;;5069448;28;20040;-70
2023/05/17 06:21:32;;;;;;;18.48;5.32;;;;;;;;;;5071246;28;20375;-71
2023/05/17 06:23:58;;;;;;;17.10;5.25;;;;;;;;;;5080576;28;20124;-71
2023/05/17 06:26:24;;;;;;;18.33;5.15;;;;;;;;;;5081424;28;20027;-73
2023/05/17 06:28:51;;;;;;;18.45;5.53;;;;;;;;;;5074042;28;20085;-72
2023/05/17 06:31:17;;;;;;;17.15;4.80;;;;;;;;;;5077207;28;20555;-72
2023/05/17 06:33:43;;;;;;;21.63;6.15;;;;;;;;;;5079806;28;20153;-74
2023/05/17 06:36:09;;;;;;;13.88;4.93;;;;;;;;;;5076024;28;20029;-74
2023/05/17 06:38:35;;;;;;;19.63;5.20;;;;;;;;;;5072583;28;20024;-73
2023/05/17 06:41:02;;;;;;;20.40;5.40;;;;;;;;;;5067307;28;20115;-76
2023/05/17 06:43:28;;;;;;;16.67;5.20;;;;;;;;;;5074964;28;20044;-71
2023/05/17 06:45:54;;;;;;;16.13;4.50;;;;;;;;;;5071029;28;20489;-73
2023/05/17 06:48:20;;;;;;;19.42;4.90;;;;;;;;;;5075038;28;20029;-72
2023/05/17 06:50:46;;;;;;;15.88;4.90;;;;;;;;;;5087448;28;20016;-74
2023/05/17 06:53:13;;;;;;;18.65;5.15;;;;;;;;;;5073880;28;20093;-72
2023/05/17 06:55:39;;;;;;;14.95;5.35;;;;;;;;;;5078856;28;20249;-72
2023/05/17 06:58:05;;;;;;;18.30;5.38;;;;;;;;;;5077990;28;20392;-73
2023/05/17 07:00:32;;;;;;;11.88;4.40;;;;;;;;;;5072930;28;20118;-72
2023/05/17 07:02:58;;;;;;;11.90;4.60;;;;;;;;;;5077749;28;20509;-71
2023/05/17 07:05:24;;;;;;;20.05;5.72;;;;;;;;;;5083202;28;20028;-73
2023/05/17 07:07:51;;;;;;;17.50;5.32;;;;;;;;;;5073862;28;20016;-71
2023/05/17 07:10:17;;;;;;;10.95;3.97;;;;;;;;;;5082669;28;20030;-72
2023/05/17 07:12:43;;;;;;;17.50;4.38;;;;;;;;;;5080188;28;20107;-74
2023/05/17 07:15:09;;;;;;;16.02;5.22;;;;;;;;;;5074113;28;20024;-74
2023/05/17 07:17:36;;;;;;;14.77;4.38;;;;;;;;;;5074889;28;20032;-73
2023/05/17 07:20:02;;;;;;;15.07;4.97;;;;;;;;;;5070530;28;20099;-73
2023/05/17 07:22:29;;;;;;;20.55;4.60;;;;;;;;;;5080267;28;20031;-72
2023/05/17 07:24:55;;;;;;;16.17;4.10;;;;;;;;;;5075898;28;20044;-77
2023/05/17 07:27:21;;;;;;;20.73;5.38;;;;;;;;;;5078259;28;20034;-76
2023/05/17 07:29:48;;;;;;;14.18;5.25;;;;;;;;;;5083153;28;20480;-75
2023/05/17 07:32:14;;;;;;;15.77;4.47;;;;;;;;;;5061799;28;20516;-76
2023/05/17 07:34:41;;;;;;;12.57;4.13;;;;;;;;;;5079516;28;20078;-84
2023/05/17 07:37:07;;;;;;;12.75;4.60;;;;;;;;;;5066342;28;20104;-76
2023/05/17 07:39:33;;;;;;;14.18;4.22;;;;;;;;;;5075271;28;20097;-75
2023/05/17 07:41:59;;;;;;;12.52;4.72;;;;;;;;;;5067168;28;20029;-74
2023/05/17 07:44:26;;;;;;;11.75;4.10;;;;;;;;;;5085203;28;20098;-88
2023/05/17 07:46:52;;;;;;;21.10;5.00;;;;;;;;;;5082831;28;20043;-85
2023/05/17 07:49:18;;;;;;;13.68;5.13;;;;;;;;;;5078555;28;20067;-75
2023/05/17 07:51:44;;;;;;;22.17;5.18;;;;;;;;;;5071246;28;20048;-75
2023/05/17 07:54:12;;;;;;;13.02;5.25;;;;;;;;;;5072518;28;20030;-86
2023/05/17 07:56:38;;;;;;;13.85;4.57;;;;;;;;;;5081397;28;20060;-93
2023/05/17 07:59:05;;;;;;;13.68;4.63;;;;;;;;;;5082746;28;20081;-76
2023/05/17 08:01:31;;;;;;;18.02;5.07;;;;;;;;;;5079965;28;20032;-75
2023/05/17 08:03:57;;;;;;;16.48;4.50;;;;;;;;;;5088666;28;20043;-90
2023/05/17 08:06:24;;;;;;;19.67;5.35;;;;;;;;;;5075368;28;20059;-90
2023/05/17 08:08:50;;;;;;;16.65;5.28;;;;;;;;;;5080975;28;20043;-76
2023/05/17 08:11:17;;;;;;;17.48;5.15;;;;;;;;;;5075285;28;20025;-75
2023/05/17 08:13:43;;;;;;;15.63;4.90;;;;;;;;;;5086009;28;20028;-90
2023/05/17 08:16:11;;;;;;;16.00;4.95;;;;;;;;;;5078460;28;20484;-85
2023/05/17 08:18:37;;;;;;;14.48;4.68;;;;;;;;;;5080274;28;20508;-87
2023/05/17 08:21:03;;;;;;;21.50;4.85;;;;;;;;;;5083293;28;20027;-84
2023/05/17 08:23:30;;;;;;;18.27;5.18;;;;;;;;;;5082896;28;20110;-75
2023/05/17 08:25:56;;;;;;;17.17;4.75;;;;;;;;;;5064675;28;20012;-76
2023/05/17 08:28:22;;;;;;;15.27;4.30;;;;;;;;;;5074903;28;20029;-76
2023/05/17 08:30:49;;;;;;;20.35;5.20;;;;;;;;;;5071807;28;20035;-76
2023/05/17 08:33:15;;;;;;;14.98;4.70;;;;;;;;;;5072047;28;20617;-86
2023/05/17 08:35:41;;;;;;;16.67;4.97;;;;;;;;;;5063407;28;20101;-92
2023/05/17 08:38:07;;;;;;;26.23;5.68;;;;;;;;;;5074806;28;20023;-82
2023/05/17 08:40:33;;;;;;;20.48;5.45;;;;;;;;;;5076453;28;20018;-81
2023/05/17 08:43:01;;;;;;;12.68;4.88;;;;;;;;;;5073696;28;20111;-92
2023/05/17 08:45:27;;;;;;;14.63;4.35;;;;;;;;;;5086542;28;20047;-91
2023/05/17 08:47:55;;;;;;;18.42;5.35;;;;;;;;;;5083473;28;20020;-92
2023/05/17 08:50:21;;;;;;;12.98;4.63;;;;;;;;;;5095815;28;20015;-94
2023/05/17 08:52:47;;;;;;;23.15;5.60;;;;;;;;;;5091860;28;20527;-92
2023/05/17 08:55:15;;;;;;;17.95;5.43;;;;;;;;;;5079289;28;20024;-79
2023/05/17 08:57:41;;;;;;;15.95;4.95;;;;;;;;;;5081700;28;20385;-78
2023/05/17 09:00:11;;;;;;;19.30;5.03;;;;;;;;;;5078394;28;20114;-84
2023/05/17 09:02:38;;;;;;;14.93;5.07;;;;;;;;;;5080197;28;20024;-81
2023/05/17 09:05:05;;;;;;;29.20;6.03;;;;;;;;;;5081845;28;20016;-75
2023/05/17 09:07:31;;;;;;;23.73;5.43;;;;;;;;;;5074383;28;20026;-76
2023/05/17 09:09:58;;;;;;;14.30;4.88;;;;;;;;;;5076498;28;20052;-78
2023/05/17 09:12:24;;;;;;;112.93;10.30;;;;;;;;;;5076926;28;20071;-79
2023/05/17 09:14:50;;;;;;;20.45;4.88;;;;;;;;;;5084510;28;20027;-84
2023/05/17 09:17:18;;;;;;;17.92;5.55;;;;;;;;;;5074253;28;20415;-75
2023/05/17 09:19:45;;;;;;;15.82;4.90;;;;;;;;;;5083472;28;20099;-75
2023/05/17 09:22:14;;;;;;;19.00;5.82;;;;;;;;;;5077165;28;20043;-76
2023/05/17 09:24:41;;;;;;;21.98;5.40;;;;;;;;;;5083363;28;20024;-73
2023/05/17 09:27:07;;;;;;;17.42;4.85;;;;;;;;;;5069796;28;20027;-75
2023/05/17 09:29:35;;;;;;;18.80;5.20;;;;;;;;;;5075063;28;20100;-73
2023/05/17 09:32:14;;;;;;;18.20;4.80;;;;;;;;;;5076640;28;20059;-75
2023/05/17 09:34:40;;;;;;;42.92;7.22;;;;;;;;;;5073213;28;20028;-83
2023/05/17 09:37:16;;;;;;;18.10;5.00;;;;;;;;;;5080426;28;20021;-75
2023/05/17 09:39:46;;;;;;;21.67;5.03;;;;;;;;;;5079812;28;20028;-74
2023/05/17 09:42:13;;;;;;;25.75;5.55;;;;;;;;;;5073057;28;20040;-74
2023/05/17 09:44:46;;;;;;;22.10;5.65;;;;;;;;;;5081419;28;20111;-75
2023/05/17 09:47:21;;;;;;;21.73;5.38;;;;;;;;;;5056822;28;20031;-75
2023/05/17 09:49:48;;;;;;;16.05;5.50;;;;;;;;;;5062436;28;20017;-76
2023/05/17 09:52:17;;;;;;;18.90;4.18;;;;;;;;;;5075235;28;20131;-75
2023/05/17 09:54:43;;;;;;;12.98;4.28;;;;;;;;;;5084022;28;20085;-75
2023/05/17 09:57:10;;;;;;;16.58;4.93;;;;;;;;;;5065483;28;20115;-76
2023/05/17 09:59:36;;;;;;;14.63;4.85;;;;;;;;;;5079352;28;20028;-75
2023/05/17 10:02:05;;;;;;;16.42;4.32;;;;;;;;;;5076160;28;20095;-74
2023/05/17 10:04:33;;;;;;;17.40;5.05;;;;;;;;;;5083223;28;20028;-75
2023/05/17 10:07:00;;;;;;;18.50;5.20;;;;;;;;;;5078181;28;20400;-75
2023/05/17 10:09:33;;;;;;;27.55;6.38;;;;;;;;;;5077466;28;20036;-74
2023/05/17 10:11:59;;;;;;;18.58;4.85;;;;;;;;;;5084976;28;20092;-75
2023/05/17 10:14:25;;;;;;;15.88;4.70;;;;;;;;;;5087563;28;20545;-75
2023/05/17 10:16:53;;;;;;;17.15;5.07;;;;;;;;;;5084605;28;20024;-75
2023/05/17 10:19:22;;;;;;;24.88;5.63;;;;;;;;;;5082346;28;20032;-75
2023/05/17 10:21:50;;;;;;;21.85;5.68;;;;;;;;;;5075228;28;20051;-75
2023/05/17 10:24:16;;;;;;;23.38;5.75;;;;;;;;;;5079520;28;20031;-74
2023/05/17 10:26:43;;;;;;;16.98;4.38;;;;;;;;;;5077944;28;20036;-75
2023/05/17 10:29:09;;;;;;;15.77;4.93;;;;;;;;;;5074866;28;20036;-74
2023/05/17 10:31:35;;;;;;;19.70;5.15;;;;;;;;;;5061863;28;20140;-75
2023/05/17 10:34:04;;;;;;;18.98;4.40;;;;;;;;;;5085953;28;20020;-75
2023/05/17 10:36:30;;;;;;;18.85;4.25;;;;;;;;;;5081945;28;20099;-75
2023/05/17 10:38:57;;;;;;;17.92;4.80;;;;;;;;;;5073668;28;20040;-75
2023/05/17 10:41:25;;;;;;;22.05;4.97;;;;;;;;;;5065677;28;20028;-75
2023/05/17 10:43:52;;;;;;;24.70;5.95;;;;;;;;;;5073852;28;20510;-75
2023/05/17 10:46:20;;;;;;;16.77;5.10;;;;;;;;;;5074161;28;20108;-74
2023/05/17 10:48:54;;;;;;;19.88;5.22;;;;;;;;;;5081141;28;20024;-75
2023/05/17 10:51:38;;;;;;;21.85;5.45;;;;;;;;;;5058365;28;20016;-75
2023/05/17 10:54:17;;;;;;;13.25;4.95;;;;;;;;;;5073879;28;20054;-75
2023/05/17 10:57:04;;;;;;;21.38;6.20;;;;;;;;;;5073655;28;20016;-75
2023/05/17 10:59:31;;;;;;;15.48;4.60;;;;;;;;;;5089026;28;20023;-75
2023/05/17 11:02:08;;;;;;;16.85;4.82;;;;;;;;;;5070987;28;20037;-75
2023/05/17 11:04:34;;;;;;;19.58;5.15;;;;;;;;;;5080385;28;20024;-75
2023/05/17 11:07:16;;;;;;;23.58;5.82;;;;;;;;;;5077772;28;20020;-75
2023/05/17 11:09:46;;;;;;;14.52;4.18;;;;;;;;;;5075092;28;20028;-74
2023/05/17 11:12:13;;;;;;;16.75;4.05;;;;;;;;;;5079460;28;20035;-75
2023/05/17 11:14:45;;;;;;;13.43;4.60;;;;;;;;;;5074324;28;20124;-74
2023/05/17 11:17:15;;;;;;;17.02;4.38;;;;;;;;;;5073949;28;20480;-75
2023/05/17 11:20:02;;;;;;;15.55;5.22;;;;;;;;;;5079241;28;20058;-75
2023/05/17 11:22:33;;;;;;;14.43;4.93;;;;;;;;;;5073547;28;20538;-74
2023/05/17 11:25:01;;;;;;;19.70;5.00;;;;;;;;;;5078196;28;20029;-73
2023/05/17 11:27:29;;;;;;;15.85;4.88;;;;;;;;;;5079603;28;20160;-73
2023/05/17 11:29:57;;;;;;;15.02;4.90;;;;;;;;;;5071508;28;20477;-73
2023/05/17 11:32:31;;;;;;;16.45;4.00;;;;;;;;;;5078986;28;20043;-73
2023/05/17 11:35:00;;;;;;;15.82;5.07;;;;;;;;;;5057464;28;20020;-74
2023/05/17 11:37:27;;;;;;;16.08;4.28;;;;;;;;;;5079443;28;20496;-73
2023/05/17 11:40:06;;;;;;;23.23;4.63;;;;;;;;;;5081818;28;20039;-73
2023/05/17 11:42:37;;;;;;;17.40;5.03;;;;;;;;;;5082615;28;20025;-73
2023/05/17 11:45:03;;;;;;;15.43;4.68;;;;;;;;;;5074507;28;20361;-74
2023/05/17 11:47:30;;;;;;;18.25;4.13;;;;;;;;;;5060856;28;20103;-74
2023/05/17 11:50:00;;;;;;;18.20;4.40;;;;;;;;;;5080863;28;20036;-73
2023/05/17 11:52:27;;;;;;;12.38;4.60;;;;;;;;;;5080587;28;20032;-74
2023/05/17 11:54:54;;;;;;;13.15;4.15;;;;;;;;;;5086810;28;20028;-73
2023/05/17 11:57:21;;;;;;;17.38;5.10;;;;;;;;;;5073888;28;20027;-73
2023/05/17 11:59:47;;;;;;;14.18;4.55;;;;;;;;;;5077015;28;20024;-73
2023/05/17 12:02:32;;;;;;;20.75;5.15;;;;;;;;;;5079694;28;20489;-74
2023/05/17 12:04:58;;;;;;;17.60;4.28;;;;;;;;;;5078245;28;20028;-74
2023/05/17 12:07:25;;;;;;;14.27;4.57;;;;;;;;;;5076472;28;21467;-74
2023/05/17 12:09:52;;;;;;;12.95;4.07;;;;;;;;;;5077244;28;20076;-74
2023/05/17 12:12:21;;;;;;;18.80;5.30;;;;;;;;;;5077397;28;20032;-74
2023/05/17 12:14:47;;;;;;;18.75;4.68;;;;;;;;;;5089742;28;20019;-74
2023/05/17 12:17:21;;;;;;;17.88;5.30;;;;;;;;;;5081104;28;20085;-74
2023/05/17 12:19:47;;;;;;;17.52;5.00;;;;;;;;;;5073165;28;20016;-73
2023/05/17 12:22:13;;;;;;;14.85;4.72;;;;;;;;;;5074957;28;20048;-73
2023/05/17 12:24:40;;;;;;;16.65;4.70;;;;;;;;;;5080830;28;20032;-74
2023/05/17 12:27:06;;;;;;;20.25;4.78;;;;;;;;;;5057546;28;20039;-74
2023/05/17 12:29:33;;;;;;;15.38;4.40;;;;;;;;;;5072454;28;20057;-74
2023/05/17 12:32:00;;;;;;;21.63;5.30;;;;;;;;;;5080727;28;20517;-73
2023/05/17 12:34:27;;;;;;;21.02;4.78;;;;;;;;;;5085071;28;20047;-75
2023/05/17 12:36:53;;;;;;;15.63;4.85;;;;;;;;;;5076725;28;20434;-74
2023/05/17 12:39:23;;;;;;;20.65;5.53;;;;;;;;;;5078720;28;20012;-74
2023/05/17 12:41:52;;;;;;;16.13;4.75;;;;;;;;;;5070672;28;20036;-76
2023/05/17 12:44:22;;;;;;;23.38;4.88;;;;;;;;;;5058703;28;20063;-76
2023/05/17 12:46:52;;;;;;;14.57;4.78;;;;;;;;;;5070150;28;20507;-75
2023/05/17 12:49:22;;;;;;;22.98;4.88;;;;;;;;;;5057192;28;20071;-76
2023/05/17 12:51:48;;;;;;;15.38;4.85;;;;;;;;;;5068019;28;20029;-74
2023/05/17 12:54:28;;;;;;;20.75;5.05;;;;;;;;;;5073421;28;20028;-72
2023/05/17 12:56:55;;;;;;;24.02;4.97;;;;;;;;;;5076479;28;20028;-76
2023/05/17 12:59:24;;;;;;;17.25;4.93;;;;;;;;;;5069986;28;20090;-75
2023/05/17 13:01:50;;;;;;;35.05;6.53;;;;;;;;;;5074859;28;20024;-77
2023/05/17 13:04:17;;;;;;;19.58;5.00;;;;;;;;;;5076313;28;20035;-75
2023/05/17 13:06:47;;;;;;;20.38;5.95;;;;;;;;;;5078653;28;20153;-74
2023/05/17 13:09:14;;;;;;;19.60;5.03;;;;;;;;;;5071909;28;20103;-74
2023/05/17 13:11:41;;;;;;;16.20;4.57;;;;;;;;;;5068444;28;20017;-76
2023/05/17 13:14:08;;;;;;;19.42;5.22;;;;;;;;;;5070496;28;20536;-76
2023/05/17 13:16:37;;;;;;;17.67;4.32;;;;;;;;;;5074382;28;20715;-76
2023/05/17 13:19:11;;;;;;;19.02;4.90;;;;;;;;;;5075834;28;20020;-76
2023/05/17 13:21:38;;;;;;;14.25;4.78;;;;;;;;;;5065994;28;20020;-76
2023/05/17 13:24:04;;;;;;;22.70;5.50;;;;;;;;;;5070201;28;20155;-75
2023/05/17 13:26:30;;;;;;;21.75;4.65;;;;;;;;;;5064608;28;20210;-75
2023/05/17 13:28:57;;;;;;;24.35;6.40;;;;;;;;;;5076723;28;20115;-77
2023/05/17 13:31:25;;;;;;;15.82;4.85;;;;;;;;;;5073614;28;20040;-77
2023/05/17 13:33:52;;;;;;;20.60;5.18;;;;;;;;;;5073996;28;20162;-75
2023/05/17 13:36:18;;;;;;;23.75;5.07;;;;;;;;;;5065945;28;20035;-76
2023/05/17 13:38:44;;;;;;;28.48;6.28;;;;;;;;;;5072528;28;20119;-75
2023/05/17 13:41:11;;;;;;;16.20;4.63;;;;;;;;;;5068673;28;20089;-75
2023/05/17 13:43:37;;;;;;;18.83;4.80;;;;;;;;;;5076250;28;20139;-75
2023/05/17 13:46:03;;;;;;;25.20;5.43;;;;;;;;;;5070166;28;20029;-75
2023/05/17 13:48:30;;;;;;;14.98;5.30;;;;;;;;;;5073052;28;20503;-75
2023/05/17 13:50:57;;;;;;;21.42;5.55;;;;;;;;;;5072941;28;20464;-76
2023/05/17 13:53:23;;;;;;;19.70;5.40;;;;;;;;;;5070644;28;20802;-76
2023/05/17 13:55:49;;;;;;;20.67;5.30;;;;;;;;;;5073696;28;20891;-76
2023/05/17 13:58:16;;;;;;;23.42;4.88;;;;;;;;;;5078103;28;20032;-76
2023/05/17 14:00:43;;;;;;;20.92;5.63;;;;;;;;;;5075266;28;20033;-77
2023/05/17 14:03:15;;;;;;;26.73;4.97;;;;;;;;;;5069879;28;20047;-77
2023/05/17 14:05:41;;;;;;;19.30;5.00;;;;;;;;;;5073177;28;20609;-77
2023/05/17 14:08:07;;;;;;;23.35;5.88;;;;;;;;;;5071981;28;20044;-75
2023/05/17 14:10:34;;;;;;;27.45;5.95;;;;;;;;;;5073072;28;20028;-75
2023/05/17 14:13:00;;;;;;;20.35;5.57;;;;;;;;;;5065650;28;20051;-76
2023/05/17 14:15:26;;;;;;;20.17;4.90;;;;;;;;;;5053550;28;20548;-76
2023/05/17 14:17:53;;;;;;;20.83;5.22;;;;;;;;;;5068620;28;20131;-75
2023/05/17 14:20:19;;;;;;;26.05;5.93;;;;;;;;;;5066797;28;20076;-76
2023/05/17 14:22:45;;;;;;;16.85;4.78;;;;;;;;;;5070685;28;20078;-75
2023/05/17 14:25:12;;;;;;;15.15;5.22;;;;;;;;;;5072598;28;20031;-76
2023/05/17 14:27:38;;;;;;;24.17;5.15;;;;;;;;;;5067431;28;20035;-75
2023/05/17 14:30:04;;;;;;;22.73;6.22;;;;;;;;;;5068365;28;20595;-76
2023/05/17 14:32:31;;;;;;;20.75;5.68;;;;;;;;;;5073030;28;20083;-75